Time;durP1;ratioP1;P1;durP2;ratioP2;P2;SDS_P1;SDS_P2;PMS_P1;PMS_P2;Temp;Humidity;BMP_temperature;BMP_pressure;BME280_temperature;BME280_humidity;BME280_pressure;Samples;Min_cycle;Max_cycle;Signal;HPM_P1;HPM_P2
2022/01/21 00:01:45;;;;;;;1.47;0.83;;;-0.40;99.90;;;;;;5052981;28;20235;-74
2022/01/21 00:04:11;;;;;;;2.77;1.03;;;-0.40;99.90;;;;;;5057860;28;20184;-72
2022/01/21 00:06:38;;;;;;;3.40;1.37;;;-0.30;99.90;;;;;;5052264;28;20249;-70
2022/01/21 00:09:04;;;;;;;5.37;1.30;;;-0.40;99.90;;;;;;5055044;28;20207;-70
2022/01/21 00:11:30;;;;;;;3.87;0.93;;;-0.40;99.90;;;;;;5055398;28;20457;-72
2022/01/21 00:13:58;;;;;;;12.43;1.53;;;-0.30;99.90;;;;;;5057332;28;20720;-70
2022/01/21 00:16:25;;;;;;;3.50;1.07;;;-0.40;99.90;;;;;;5053301;28;20698;-70
2022/01/21 00:19:03;;;;;;;2.30;1.00;;;-0.40;99.90;;;;;;5057520;28;20189;-73
2022/01/21 00:32:27;;;;;;;4.00;0.97;;;-0.40;99.90;;;;;;5045525;28;20219;-65
2022/01/21 00:34:52;;;;;;;2.33;0.90;;;-0.40;99.90;;;;;;5066270;28;20562;-71
2022/01/21 00:37:18;;;;;;;4.70;1.03;;;-0.40;99.90;;;;;;5050356;28;20241;-68
2022/01/21 00:39:49;;;;;;;1.23;0.80;;;-0.40;99.90;;;;;;5062904;28;20207;-70
2022/01/21 00:42:43;;;;;;;4.27;1.23;;;-0.30;99.90;;;;;;5047450;28;20208;-70
2022/01/21 00:45:00;;;;;;;3.20;1.40;;;-0.30;99.90;;;;;;5054522;28;20217;-73
2022/01/21 00:47:29;;;;;;;7.07;1.10;;;-0.40;99.90;;;;;;5048798;28;20302;-70
2022/01/21 00:49:56;;;;;;;6.13;0.97;;;-0.50;99.90;;;;;;5065986;28;20811;-70
2022/01/21 00:52:22;;;;;;;5.07;1.50;;;-0.50;99.90;;;;;;5049170;28;20225;-71
2022/01/21 00:54:48;;;;;;;5.30;1.20;;;-0.50;99.90;;;;;;5065524;28;20193;-71
2022/01/21 00:57:14;;;;;;;1.40;0.97;;;-0.40;99.90;;;;;;5050208;28;20208;-66
2022/01/21 00:59:40;;;;;;;0.97;0.70;;;-0.40;99.90;;;;;;5059105;28;20233;-66
2022/01/21 01:02:06;;;;;;;2.20;1.13;;;-0.50;99.90;;;;;;5052294;28;20203;-66
2022/01/21 01:04:32;;;;;;;2.77;1.03;;;-0.50;99.90;;;;;;5065536;28;20189;-66
2022/01/21 01:06:57;;;;;;;2.80;1.47;;;-0.50;99.90;;;;;;5052132;28;20215;-67
2022/01/21 01:09:23;;;;;;;5.67;1.43;;;-0.50;99.90;;;;;;5065083;28;20191;-66
2022/01/21 01:12:11;;;;;;;2.93;0.90;;;-0.50;99.90;;;;;;5051311;28;20207;-70
2022/01/21 01:20:08;;;;;;;6.10;1.17;;;-0.40;99.90;;;;;;5044878;28;20697;-74
2022/01/21 01:28:24;;;;;;;4.40;1.27;;;-0.60;99.90;;;;;;5065419;28;20275;-77
2022/01/21 01:30:50;;;;;;;2.43;1.20;;;-0.60;99.90;;;;;;5055765;28;20209;-78
2022/01/21 01:33:22;;;;;;;5.30;1.00;;;-0.70;99.90;;;;;;5064574;28;20349;-75
2022/01/21 01:35:49;;;;;;;6.30;1.73;;;-0.70;99.90;;;;;;5054691;28;20205;-75
2022/01/21 01:40:58;;;;;;;1.97;0.80;;;-0.70;99.90;;;;;;5050854;28;20291;-76
2022/01/21 01:51:34;;;;;;;4.10;1.03;;;-0.80;99.90;;;;;;5053173;28;20322;-75
2022/01/21 01:54:08;;;;;;;5.80;1.30;;;-0.80;99.90;;;;;;5052795;28;20312;-75
2022/01/21 01:56:37;;;;;;;7.43;1.90;;;-0.80;99.90;;;;;;5054304;28;20173;-76
2022/01/21 01:59:03;;;;;;;3.23;1.00;;;-0.80;99.90;;;;;;5053448;28;20212;-81
2022/01/21 02:01:28;;;;;;;1.67;0.83;;;-0.80;99.90;;;;;;5055340;28;20641;-79
2022/01/21 02:03:54;;;;;;;3.17;1.60;;;-0.90;99.90;;;;;;5051028;28;20319;-79
2022/01/21 02:06:20;;;;;;;6.03;1.57;;;-0.90;99.90;;;;;;5053632;28;20182;-76
2022/01/21 02:08:46;;;;;;;2.63;0.80;;;-0.90;99.90;;;;;;5065250;28;20776;-77
2022/01/21 02:11:12;;;;;;;5.70;0.90;;;-0.90;99.90;;;;;;5055132;28;20200;-83
2022/01/21 02:13:47;;;;;;;4.03;1.20;;;-0.90;99.90;;;;;;5065902;28;20556;-82
2022/01/21 02:21:38;;;;;;;2.97;1.03;;;-0.90;99.90;;;;;;5046605;28;20594;-80
2022/01/21 02:24:06;;;;;;;5.00;1.40;;;-0.90;99.90;;;;;;5051938;28;20210;-83
2022/01/21 02:26:32;;;;;;;5.77;1.37;;;-0.90;99.90;;;;;;5062774;28;20187;-77
2022/01/21 02:29:00;;;;;;;4.37;1.10;;;-0.90;99.90;;;;;;5049874;28;20182;-81
2022/01/21 02:31:26;;;;;;;5.17;1.27;;;-0.90;99.90;;;;;;5056405;28;20578;-75
2022/01/21 02:33:51;;;;;;;4.57;1.30;;;-1.00;99.90;;;;;;5049739;28;20198;-76
2022/01/21 02:36:17;;;;;;;4.40;1.10;;;-1.00;99.90;;;;;;5056046;28;20211;-74
2022/01/21 02:38:42;;;;;;;5.90;1.27;;;-0.90;99.90;;;;;;5044440;28;20216;-76
2022/01/21 02:41:09;;;;;;;4.93;1.10;;;-1.00;99.90;;;;;;5060548;28;20340;-75
2022/01/21 02:43:34;;;;;;;6.53;1.10;;;-1.00;99.90;;;;;;5051519;28;20201;-75
2022/01/21 02:46:04;;;;;;;5.80;1.10;;;-1.00;99.90;;;;;;5053722;28;20198;-78
2022/01/21 02:48:34;;;;;;;4.67;1.20;;;-1.00;99.90;;;;;;5055128;28;20212;-79
2022/01/21 02:51:00;;;;;;;7.13;1.60;;;-1.00;99.90;;;;;;5052236;28;20198;-79
2022/01/21 02:53:38;;;;;;;3.57;1.00;;;-1.00;99.90;;;;;;5045617;28;20281;-75
2022/01/21 02:56:04;;;;;;;3.63;1.50;;;-1.00;99.90;;;;;;5057873;28;20333;-80
2022/01/21 02:58:29;;;;;;;1.90;1.20;;;-1.10;99.90;;;;;;5051872;28;20291;-75
2022/01/21 03:00:55;;;;;;;2.93;1.50;;;-1.10;99.90;;;;;;5061116;28;20206;-75
2022/01/21 03:03:20;;;;;;;5.43;1.60;;;-1.10;99.90;;;;;;5057475;28;20333;-74
2022/01/21 03:05:46;;;;;;;1.27;0.70;;;-1.10;99.90;;;;;;5053398;28;20287;-69
2022/01/21 03:08:11;;;;;;;6.70;1.80;;;-1.10;99.90;;;;;;5057969;28;20659;-73
2022/01/21 03:10:37;;;;;;;3.50;1.17;;;-1.10;99.90;;;;;;5064369;28;20200;-74
2022/01/21 03:13:03;;;;;;;3.60;1.33;;;-1.10;99.90;;;;;;5062079;28;20202;-74
2022/01/21 03:15:28;;;;;;;3.37;0.97;;;-1.10;99.90;;;;;;5055854;28;20210;-71
2022/01/21 03:17:54;;;;;;;3.07;0.90;;;-1.10;99.90;;;;;;5055154;28;20599;-70
2022/01/21 03:20:19;;;;;;;5.30;1.70;;;-1.20;99.90;;;;;;5056520;28;20697;-74
2022/01/21 03:22:45;;;;;;;4.17;1.40;;;-1.10;99.90;;;;;;5064478;28;20365;-72
2022/01/21 03:25:10;;;;;;;1.70;0.87;;;-1.20;99.90;;;;;;5061714;28;20212;-71
2022/01/21 03:27:36;;;;;;;3.03;1.20;;;-1.20;99.90;;;;;;5056943;28;20184;-71
2022/01/21 03:30:04;;;;;;;1.90;1.40;;;-1.20;99.90;;;;;;5062578;28;20761;-73
2022/01/21 03:32:30;;;;;;;3.17;1.00;;;-1.30;99.90;;;;;;5065836;28;20213;-72
2022/01/21 03:34:56;;;;;;;5.13;0.90;;;-1.30;99.90;;;;;;5065936;28;20206;-71
2022/01/21 03:37:21;;;;;;;6.70;1.43;;;-1.30;99.90;;;;;;5055169;28;20212;-71
2022/01/21 03:39:47;;;;;;;1.73;0.80;;;-1.30;99.90;;;;;;5053828;28;20196;-73
2022/01/21 03:42:12;;;;;;;2.33;1.43;;;-1.30;99.90;;;;;;5059042;28;20194;-70
2022/01/21 03:44:38;;;;;;;3.80;0.77;;;-1.30;99.90;;;;;;5064845;28;20176;-73
2022/01/21 03:47:04;;;;;;;5.07;1.40;;;-1.40;99.90;;;;;;5059709;28;20292;-71
2022/01/21 03:49:36;;;;;;;4.33;1.93;;;-1.40;99.90;;;;;;5060474;28;20180;-69
2022/01/21 03:52:04;;;;;;;4.17;1.30;;;-1.40;99.90;;;;;;5058208;28;20606;-74
2022/01/21 03:54:29;;;;;;;4.73;1.40;;;-1.40;99.90;;;;;;5058733;28;20286;-70
2022/01/21 03:56:55;;;;;;;5.53;1.40;;;-1.40;99.90;;;;;;5059503;28;20729;-69
2022/01/21 03:59:20;;;;;;;3.87;1.00;;;-1.40;99.90;;;;;;5063930;28;20214;-71
2022/01/21 04:01:46;;;;;;;3.83;1.37;;;-1.40;99.90;;;;;;5062380;28;20769;-70
2022/01/21 04:04:11;;;;;;;2.33;1.13;;;-1.50;99.90;;;;;;5050346;28;20183;-70
2022/01/21 04:06:37;;;;;;;3.23;1.17;;;-1.50;99.90;;;;;;5060563;28;20222;-72
2022/01/21 04:09:03;;;;;;;6.90;1.90;;;-1.50;99.90;;;;;;5046960;28;20203;-73
2022/01/21 04:11:28;;;;;;;6.43;1.50;;;-1.50;99.90;;;;;;5062027;28;20279;-73
2022/01/21 04:13:55;;;;;;;2.77;2.40;;;-1.50;99.90;;;;;;5058060;28;20210;-72
2022/01/21 04:16:21;;;;;;;4.63;1.30;;;-1.50;99.90;;;;;;5063147;28;20186;-68
2022/01/21 04:18:47;;;;;;;5.63;1.83;;;-1.50;99.90;;;;;;5061103;28;20297;-73
2022/01/21 04:21:12;;;;;;;2.03;1.47;;;-1.60;99.90;;;;;;5060976;28;20694;-72
2022/01/21 04:23:38;;;;;;;3.77;1.20;;;-1.50;99.90;;;;;;5053404;28;20281;-65
2022/01/21 04:26:04;;;;;;;2.00;1.23;;;-1.60;99.90;;;;;;5060850;28;20179;-65
2022/01/21 04:28:29;;;;;;;3.30;1.00;;;-1.60;99.90;;;;;;5060992;28;20211;-74
2022/01/21 04:30:56;;;;;;;3.87;1.80;;;-1.60;99.90;;;;;;5062448;28;20189;-73
2022/01/21 04:33:21;;;;;;;6.33;2.03;;;-1.60;99.90;;;;;;5054469;28;20202;-70
2022/01/21 04:35:47;;;;;;;3.03;1.20;;;-1.60;99.90;;;;;;5056664;28;20711;-70
2022/01/21 04:38:15;;;;;;;6.63;1.97;;;-1.60;99.90;;;;;;5052168;28;20320;-67
2022/01/21 04:40:49;;;;;;;5.20;2.07;;;-1.60;99.90;;;;;;5057284;28;20806;-69
2022/01/21 04:48:43;;;;;;;3.50;1.40;;;-1.60;99.90;;;;;;5053111;28;20670;-69
2022/01/21 04:51:17;;;;;;;4.23;1.30;;;-1.70;99.90;;;;;;5062642;28;20289;-65
2022/01/21 04:53:44;;;;;;;5.23;1.80;;;-1.70;99.90;;;;;;5054665;28;20228;-81
2022/01/21 04:56:11;;;;;;;7.03;1.90;;;-1.70;99.90;;;;;;5061254;28;20280;-66
2022/01/21 04:58:36;;;;;;;7.77;1.63;;;-1.50;99.90;;;;;;5052536;28;20214;-69
2022/01/21 05:01:04;;;;;;;3.83;1.93;;;-1.50;99.90;;;;;;5054256;28;20202;-67
2022/01/21 05:03:31;;;;;;;2.33;1.50;;;-1.50;99.90;;;;;;5050321;28;21079;-69
2022/01/21 05:05:57;;;;;;;2.80;1.40;;;-1.50;99.90;;;;;;5054876;28;20175;-69
2022/01/21 05:08:30;;;;;;;3.27;1.50;;;-1.60;99.90;;;;;;5055854;28;20200;-69
2022/01/21 05:10:57;;;;;;;3.57;1.57;;;-1.60;99.90;;;;;;5054140;28;20168;-69
2022/01/21 05:13:26;;;;;;;6.07;1.60;;;-1.60;99.90;;;;;;5056167;28;20686;-68
2022/01/21 05:18:23;;;;;;;6.63;1.70;;;-1.60;99.90;;;;;;5058003;28;20559;-70
2022/01/21 05:20:48;;;;;;;5.53;1.47;;;-1.60;99.90;;;;;;5056464;28;20215;-69
2022/01/21 05:23:14;;;;;;;6.23;1.90;;;-1.70;99.90;;;;;;5063600;28;20318;-70
2022/01/21 05:25:39;;;;;;;2.40;1.50;;;-1.70;99.90;;;;;;5051242;28;20291;-69
2022/01/21 05:28:05;;;;;;;5.87;2.13;;;-1.80;99.90;;;;;;5062256;28;20203;-69
2022/01/21 05:30:30;;;;;;;4.00;1.40;;;-1.80;99.90;;;;;;5055746;28;20190;-68
2022/01/21 05:32:56;;;;;;;2.90;1.43;;;-1.80;99.90;;;;;;5059841;28;20440;-67
2022/01/21 05:35:22;;;;;;;3.40;1.70;;;-1.90;99.90;;;;;;5055406;28;20203;-68
2022/01/21 05:37:47;;;;;;;5.90;1.50;;;-1.90;99.90;;;;;;5064954;28;20199;-68
2022/01/21 05:40:14;;;;;;;2.60;1.33;;;-1.80;99.90;;;;;;5048112;28;20224;-68
2022/01/21 05:42:40;;;;;;;3.93;1.73;;;-1.80;99.90;;;;;;5065176;28;20198;-68
2022/01/21 05:47:35;;;;;;;4.43;1.40;;;-1.90;99.90;;;;;;5065290;28;20187;-68
2022/01/21 05:50:01;;;;;;;4.33;1.50;;;-1.90;99.90;;;;;;5051777;28;20211;-66
2022/01/21 05:52:40;;;;;;;5.00;1.40;;;-1.90;99.90;;;;;;5065319;28;20887;-67
2022/01/21 05:55:06;;;;;;;6.07;2.27;;;-1.90;99.90;;;;;;5050065;28;20209;-67
2022/01/21 05:57:32;;;;;;;3.63;1.90;;;-1.80;99.90;;;;;;5065449;28;20194;-68
2022/01/21 05:59:58;;;;;;;7.60;2.43;;;-1.90;99.90;;;;;;5047548;28;20218;-68
2022/01/21 06:02:24;;;;;;;4.50;2.27;;;-1.90;99.90;;;;;;5065184;28;20558;-68
2022/01/21 06:04:51;;;;;;;7.47;2.10;;;-1.90;99.90;;;;;;5051874;28;20209;-68
2022/01/21 06:07:17;;;;;;;2.57;1.30;;;-1.90;99.90;;;;;;5065117;28;20200;-68
2022/01/21 06:09:43;;;;;;;5.33;1.30;;;-1.90;99.90;;;;;;5049912;28;20210;-69
2022/01/21 06:12:09;;;;;;;5.07;1.77;;;-1.80;99.90;;;;;;5059716;28;20268;-67
2022/01/21 06:14:36;;;;;;;8.70;2.03;;;-1.90;99.90;;;;;;5053664;28;20212;-67
2022/01/21 06:17:02;;;;;;;9.90;2.27;;;-1.90;99.90;;;;;;5049077;28;20200;-67
2022/01/21 06:19:27;;;;;;;8.37;1.97;;;-1.80;99.90;;;;;;5053429;28;20287;-68
2022/01/21 06:21:53;;;;;;;3.40;1.50;;;-1.80;99.90;;;;;;5064501;28;20338;-70
2022/01/21 06:24:18;;;;;;;3.27;1.20;;;-1.90;99.90;;;;;;5052176;28;20208;-69
2022/01/21 06:26:45;;;;;;;1.97;1.70;;;-1.80;99.90;;;;;;5064322;28;20206;-69
2022/01/21 06:29:12;;;;;;;6.17;2.73;;;-1.80;99.90;;;;;;5062321;28;20218;-69
2022/01/21 06:31:37;;;;;;;7.33;1.33;;;-1.80;99.90;;;;;;5064828;28;20207;-68
2022/01/21 06:34:02;;;;;;;4.97;1.80;;;-1.80;99.90;;;;;;5053452;28;20572;-68
2022/01/21 06:36:28;;;;;;;3.70;1.80;;;-1.80;99.90;;;;;;5062763;28;20221;-66
2022/01/21 06:38:54;;;;;;;4.33;1.83;;;-1.80;99.90;;;;;;5061601;28;20202;-66
2022/01/21 06:41:20;;;;;;;5.97;1.80;;;-1.80;99.90;;;;;;5063115;28;20229;-67
2022/01/21 06:43:45;;;;;;;8.83;2.07;;;-1.80;99.90;;;;;;5062281;28;20285;-67
2022/01/21 06:46:12;;;;;;;10.20;3.17;;;-1.80;99.90;;;;;;5051313;28;20179;-66
2022/01/21 06:48:37;;;;;;;6.40;1.60;;;-1.80;99.90;;;;;;5057112;28;20669;-66
2022/01/21 06:51:03;;;;;;;7.07;1.93;;;-1.80;99.90;;;;;;5053990;28;20188;-66
2022/01/21 06:53:29;;;;;;;6.63;1.53;;;-1.80;99.90;;;;;;5058415;28;20299;-67
2022/01/21 06:55:55;;;;;;;7.43;1.90;;;-1.70;99.90;;;;;;5056541;28;20237;-68
2022/01/21 06:58:20;;;;;;;6.10;2.10;;;-1.80;99.90;;;;;;5059560;28;20227;-68
2022/01/21 07:00:46;;;;;;;5.93;2.43;;;-1.80;99.90;;;;;;5055661;28;20214;-67
2022/01/21 07:03:11;;;;;;;4.67;2.03;;;-1.80;99.90;;;;;;5060127;28;20286;-66
2022/01/21 07:05:37;;;;;;;4.93;1.97;;;-1.80;99.90;;;;;;5054870;28;20178;-67
2022/01/21 07:08:03;;;;;;;4.97;1.67;;;-1.80;99.90;;;;;;5061439;28;20190;-66
2022/01/21 07:10:30;;;;;;;5.23;2.00;;;-1.80;99.90;;;;;;5059245;28;20179;-66
2022/01/21 07:12:56;;;;;;;9.83;1.80;;;-1.80;99.90;;;;;;5063602;28;20333;-67
2022/01/21 07:15:22;;;;;;;8.30;1.83;;;-1.80;99.90;;;;;;5051113;28;20199;-67
2022/01/21 07:17:52;;;;;;;3.47;1.57;;;-1.80;99.90;;;;;;5060657;28;20200;-68
2022/01/21 07:20:19;;;;;;;9.20;2.13;;;-1.80;99.90;;;;;;5061895;28;20731;-67
2022/01/21 07:22:45;;;;;;;6.83;1.50;;;-1.80;99.90;;;;;;5064268;28;20227;-68
2022/01/21 07:25:11;;;;;;;2.87;1.73;;;-1.80;99.90;;;;;;5051255;28;20208;-67
2022/01/21 07:27:36;;;;;;;10.03;1.93;;;-1.70;99.90;;;;;;5062395;28;20201;-68
2022/01/21 07:30:04;;;;;;;5.10;1.63;;;-1.80;99.90;;;;;;5056072;28;20698;-69
2022/01/21 07:32:30;;;;;;;11.63;3.40;;;-1.70;99.90;;;;;;5063445;28;20203;-69
2022/01/21 07:34:55;;;;;;;6.53;2.10;;;-1.80;99.90;;;;;;5050872;28;20214;-68
2022/01/21 07:37:21;;;;;;;4.33;1.80;;;-1.80;99.90;;;;;;5064091;28;20210;-69
2022/01/21 07:39:47;;;;;;;5.67;2.23;;;-1.80;99.90;;;;;;5047185;28;20210;-69
2022/01/21 07:42:12;;;;;;;4.50;2.13;;;-1.80;99.90;;;;;;5063227;28;21264;-68
2022/01/21 07:44:38;;;;;;;2.47;1.57;;;-1.80;99.90;;;;;;5050937;28;20239;-69
2022/01/21 07:47:05;;;;;;;9.37;2.43;;;-1.80;99.90;;;;;;5063930;28;20188;-69
2022/01/21 07:49:30;;;;;;;8.23;2.60;;;-1.80;99.90;;;;;;5054473;28;20624;-69
2022/01/21 07:51:56;;;;;;;5.30;2.27;;;-1.80;99.90;;;;;;5063636;28;20232;-68
2022/01/21 07:54:21;;;;;;;4.50;2.23;;;-1.80;99.90;;;;;;5053532;28;20753;-68
2022/01/21 07:56:47;;;;;;;5.47;1.90;;;-1.80;99.90;;;;;;5066956;28;20214;-68
2022/01/21 07:59:14;;;;;;;5.30;2.60;;;-1.70;99.90;;;;;;5055173;28;20307;-68
2022/01/21 08:01:39;;;;;;;6.50;1.97;;;-1.80;99.90;;;;;;5064249;28;20204;-69
2022/01/21 08:04:06;;;;;;;4.60;2.03;;;-1.70;99.90;;;;;;5055630;28;20206;-68
2022/01/21 08:06:32;;;;;;;8.47;1.97;;;-1.70;99.90;;;;;;5061218;28;20235;-68
2022/01/21 08:08:59;;;;;;;8.37;2.70;;;-1.70;99.90;;;;;;5056510;28;20199;-68
2022/01/21 08:11:25;;;;;;;4.50;2.00;;;-1.70;99.90;;;;;;5066177;28;20196;-68
2022/01/21 08:13:51;;;;;;;4.93;1.90;;;-1.70;99.90;;;;;;5057290;28;20227;-68
2022/01/21 08:16:17;;;;;;;10.87;2.10;;;-1.70;99.90;;;;;;5062661;28;20269;-67
2022/01/21 08:18:42;;;;;;;4.50;1.87;;;-1.70;99.90;;;;;;5064998;28;20194;-67
2022/01/21 08:21:08;;;;;;;3.03;1.63;;;-1.60;99.90;;;;;;5066321;28;20757;-67
2022/01/21 08:23:34;;;;;;;4.80;1.70;;;-1.60;99.90;;;;;;5064322;28;20294;-68
2022/01/21 08:26:00;;;;;;;7.00;2.17;;;-1.50;99.90;;;;;;5057493;28;20687;-68
2022/01/21 08:28:26;;;;;;;8.53;2.27;;;-1.50;99.90;;;;;;5060662;28;20246;-68
2022/01/21 08:30:51;;;;;;;10.57;2.23;;;-1.50;99.90;;;;;;5059130;28;20539;-68
2022/01/21 08:33:17;;;;;;;6.50;1.90;;;-1.50;99.90;;;;;;5062179;28;20260;-68
2022/01/21 08:35:43;;;;;;;8.30;2.07;;;-1.40;99.90;;;;;;5046852;28;20254;-68
2022/01/21 08:38:08;;;;;;;8.30;2.47;;;-1.40;99.90;;;;;;5063407;28;20599;-68
2022/01/21 08:40:34;;;;;;;3.90;1.90;;;-1.30;99.90;;;;;;5061014;28;20264;-68
2022/01/21 08:43:00;;;;;;;4.93;1.73;;;-1.30;99.90;;;;;;5063609;28;20198;-67
2022/01/21 08:45:26;;;;;;;7.73;2.80;;;-1.30;99.90;;;;;;5051601;28;20179;-68
2022/01/21 08:47:51;;;;;;;13.70;2.77;;;-1.20;99.90;;;;;;5066242;28;20193;-68
2022/01/21 08:50:19;;;;;;;8.27;2.40;;;-1.20;99.90;;;;;;5050448;28;20661;-69
2022/01/21 08:52:46;;;;;;;7.90;1.83;;;-1.10;99.90;;;;;;5066134;28;20262;-69
2022/01/21 08:55:16;;;;;;;5.43;2.70;;;-1.10;99.90;;;;;;5048419;28;20216;-68
2022/01/21 08:57:43;;;;;;;4.50;2.13;;;-1.10;99.90;;;;;;5065907;28;20205;-69
2022/01/21 09:00:22;;;;;;;6.77;1.53;;;-1.00;99.90;;;;;;5046904;28;20228;-68
2022/01/21 09:02:47;;;;;;;6.13;1.80;;;-1.00;99.90;;;;;;5049501;28;20193;-67
2022/01/21 09:05:13;;;;;;;5.20;1.80;;;-0.90;99.90;;;;;;5052049;28;20208;-67
2022/01/21 09:07:40;;;;;;;8.97;2.53;;;-0.90;99.90;;;;;;5059058;28;20196;-67
2022/01/21 09:10:07;;;;;;;5.87;2.23;;;-0.90;99.90;;;;;;5052481;28;20207;-67
2022/01/21 09:12:33;;;;;;;6.10;1.97;;;-0.90;99.90;;;;;;5064311;28;20609;-67
2022/01/21 09:14:59;;;;;;;6.73;1.90;;;-0.80;99.90;;;;;;5061370;28;20229;-67
2022/01/21 09:17:25;;;;;;;4.93;1.60;;;-0.80;99.90;;;;;;5065477;28;20201;-68
2022/01/21 09:19:50;;;;;;;4.20;1.50;;;-0.70;99.90;;;;;;5055935;28;20219;-66
2022/01/21 09:22:16;;;;;;;5.57;1.67;;;-0.60;99.90;;;;;;5065594;28;20847;-67
2022/01/21 09:24:41;;;;;;;5.23;1.90;;;-0.60;99.90;;;;;;5052602;28;20784;-68
2022/01/21 09:27:07;;;;;;;4.00;1.83;;;-0.50;99.90;;;;;;5065883;28;20679;-66
2022/01/21 09:29:34;;;;;;;7.67;2.07;;;-0.50;99.90;;;;;;5050842;28;20214;-66
2022/01/21 09:32:01;;;;;;;7.87;2.20;;;-0.50;99.90;;;;;;5064051;28;20225;-67
2022/01/21 09:34:28;;;;;;;10.93;2.00;;;-0.40;99.90;;;;;;5051463;28;20211;-66
2022/01/21 09:36:56;;;;;;;3.37;1.77;;;-0.40;99.90;;;;;;5065149;28;20227;-67
2022/01/21 09:39:23;;;;;;;4.23;2.73;;;-0.40;99.90;;;;;;5051715;28;20274;-68
2022/01/21 09:41:49;;;;;;;10.73;1.73;;;-0.40;99.90;;;;;;5064803;28;20560;-68
2022/01/21 09:44:17;;;;;;;16.83;2.57;;;-0.30;99.90;;;;;;5062957;28;20298;-67
2022/01/21 09:46:46;;;;;;;5.43;2.27;;;-0.30;99.90;;;;;;5065072;28;20255;-68
2022/01/21 09:49:27;;;;;;;6.37;1.47;;;-0.20;99.90;;;;;;5052876;28;20208;-67
2022/01/21 09:52:05;;;;;;;4.23;1.60;;;-0.20;99.90;;;;;;5048949;28;20196;-67
2022/01/21 09:54:36;;;;;;;3.90;1.90;;;-0.10;99.90;;;;;;5051181;28;20323;-68
2022/01/21 09:57:03;;;;;;;9.43;2.43;;;-0.10;99.90;;;;;;5051319;28;20191;-67
2022/01/21 09:59:31;;;;;;;7.10;1.90;;;0.00;99.90;;;;;;5050588;28;20977;-68
2022/01/21 10:02:03;;;;;;;5.10;1.30;;;0.00;99.90;;;;;;5063167;28;20196;-67
2022/01/21 10:04:41;;;;;;;4.70;1.63;;;0.10;99.90;;;;;;5043111;28;20216;-70
2022/01/21 10:07:13;;;;;;;11.47;2.90;;;0.20;99.90;;;;;;5061816;28;20218;-69
2022/01/21 10:09:39;;;;;;;5.40;1.90;;;0.30;99.90;;;;;;5043687;28;20290;-70
2022/01/21 10:12:05;;;;;;;9.07;2.20;;;0.30;99.90;;;;;;5058192;28;20205;-70
2022/01/21 10:14:31;;;;;;;7.17;2.30;;;0.40;99.90;;;;;;5050520;28;20208;-69
2022/01/21 10:16:58;;;;;;;4.60;1.80;;;0.40;99.90;;;;;;5064765;28;20197;-69
2022/01/21 10:19:27;;;;;;;9.07;2.07;;;0.50;99.90;;;;;;5054437;28;20433;-69
2022/01/21 10:22:13;;;;;;;5.30;1.97;;;0.60;99.90;;;;;;5064773;28;20265;-70
2022/01/21 10:24:58;;;;;;;11.63;2.80;;;0.60;99.90;;;;;;5046375;28;20208;-70
2022/01/21 10:27:24;;;;;;;6.90;2.30;;;0.70;99.90;;;;;;5064469;28;20263;-69
2022/01/21 10:29:50;;;;;;;8.83;1.97;;;0.70;99.90;;;;;;5057862;28;20213;-68
2022/01/21 10:32:30;;;;;;;11.57;2.10;;;0.70;99.90;;;;;;5063906;28;20206;-69
2022/01/21 10:34:56;;;;;;;5.83;2.10;;;0.70;99.90;;;;;;5053329;28;20201;-69
2022/01/21 10:37:29;;;;;;;11.17;1.93;;;0.80;99.90;;;;;;5060516;28;20590;-68
2022/01/21 10:40:08;;;;;;;7.87;2.43;;;0.90;99.90;;;;;;5064410;28;20220;-68
2022/01/21 10:42:34;;;;;;;6.33;1.63;;;1.10;99.90;;;;;;5060017;28;20310;-69
2022/01/21 10:45:00;;;;;;;10.70;1.90;;;1.20;99.90;;;;;;5053544;28;20182;-69
2022/01/21 10:47:35;;;;;;;6.17;2.73;;;1.30;99.90;;;;;;5057759;28;20198;-68
2022/01/21 10:50:14;;;;;;;9.10;4.43;;;1.40;99.90;;;;;;5053884;28;20216;-69
2022/01/21 10:52:51;;;;;;;16.37;8.07;;;1.50;99.90;;;;;;5044993;28;20267;-69
2022/01/21 10:55:35;;;;;;;9.17;3.07;;;1.60;99.90;;;;;;5061616;28;20746;-69
2022/01/21 10:58:12;;;;;;;7.50;2.43;;;1.70;99.90;;;;;;5059231;28;20674;-70
2022/01/21 11:00:55;;;;;;;8.27;2.30;;;1.80;99.90;;;;;;5048383;28;20257;-70
2022/01/21 11:03:21;;;;;;;8.77;2.73;;;2.00;99.90;;;;;;5057025;28;20265;-69
2022/01/21 11:05:48;;;;;;;5.57;1.90;;;2.20;99.90;;;;;;5052319;28;20540;-70
2022/01/21 11:08:15;;;;;;;3.43;1.77;;;2.40;99.90;;;;;;5064066;28;20194;-70
2022/01/21 11:10:51;;;;;;;8.80;5.30;;;2.50;99.90;;;;;;5048547;28;20328;-70
2022/01/21 11:13:19;;;;;;;10.17;5.47;;;2.90;99.90;;;;;;5064290;28;20193;-70
2022/01/21 11:15:49;;;;;;;10.07;2.27;;;2.90;99.90;;;;;;5052363;28;20647;-70
2022/01/21 11:18:18;;;;;;;3.80;2.07;;;3.10;99.90;;;;;;5064021;28;20202;-70
2022/01/21 11:20:48;;;;;;;4.03;2.03;;;3.20;99.90;;;;;;5052036;28;20214;-70
2022/01/21 11:23:15;;;;;;;5.13;2.33;;;3.30;99.90;;;;;;5063725;28;20296;-70
2022/01/21 11:25:42;;;;;;;3.87;2.00;;;3.40;99.90;;;;;;5052092;28;20633;-70
2022/01/21 11:28:09;;;;;;;4.47;1.87;;;3.40;99.90;;;;;;5064704;28;20190;-70
2022/01/21 11:30:34;;;;;;;5.17;2.17;;;3.50;99.90;;;;;;5052031;28;20213;-70
2022/01/21 11:33:00;;;;;;;6.00;1.83;;;3.80;99.90;;;;;;5067550;28;20198;-70
2022/01/21 11:35:30;;;;;;;7.37;1.73;;;3.90;99.90;;;;;;5055787;28;20202;-70
2022/01/21 11:37:56;;;;;;;2.30;1.37;;;4.00;99.90;;;;;;5067744;28;20280;-69
2022/01/21 11:40:22;;;;;;;3.90;1.70;;;4.00;99.50;;;;;;5056089;28;20217;-69
2022/01/21 11:42:49;;;;;;;4.13;1.40;;;4.20;99.00;;;;;;5067760;28;20645;-69
2022/01/21 11:45:33;;;;;;;5.87;2.00;;;4.10;98.30;;;;;;5059640;28;20194;-69
2022/01/21 11:50:39;;;;;;;4.27;1.93;;;4.20;97.70;;;;;;5045941;28;20237;-71
2022/01/21 11:53:05;;;;;;;5.00;1.57;;;4.30;97.00;;;;;;5066695;28;20663;-70
2022/01/21 11:55:49;;;;;;;4.17;2.07;;;4.70;97.30;;;;;;5051592;28;20214;-70
2022/01/21 11:58:16;;;;;;;5.07;2.30;;;5.20;96.70;;;;;;5054636;28;20183;-68
2022/01/21 12:00:44;;;;;;;5.60;2.57;;;5.30;95.80;;;;;;5051389;28;20547;-70
2022/01/21 12:03:09;;;;;;;4.73;1.70;;;5.40;95.40;;;;;;5067423;28;20198;-69
2022/01/21 12:05:36;;;;;;;4.93;2.20;;;5.70;94.90;;;;;;5055253;28;20202;-70
2022/01/21 12:08:04;;;;;;;4.97;2.20;;;5.70;94.60;;;;;;5067565;28;20205;-70
2022/01/21 12:10:31;;;;;;;4.37;2.37;;;5.80;94.10;;;;;;5055912;28;20202;-69
2022/01/21 12:13:03;;;;;;;4.93;1.47;;;5.90;93.30;;;;;;5057880;28;20855;-69
2022/01/21 12:18:53;;;;;;;13.77;6.30;;;5.40;93.50;;;;;;5055399;28;20202;-69
2022/01/21 12:21:36;;;;;;;3.27;1.50;;;5.40;94.00;;;;;;5047393;28;20250;-67
2022/01/21 12:24:03;;;;;;;5.30;2.30;;;5.80;92.70;;;;;;5054152;28;20702;-68
2022/01/21 12:26:30;;;;;;;1.93;1.33;;;6.00;91.70;;;;;;5054527;28;20189;-68
2022/01/21 12:28:58;;;;;;;4.67;1.40;;;6.00;91.10;;;;;;5056252;28;20194;-70
2022/01/21 12:31:44;;;;;;;7.33;2.57;;;6.00;91.30;;;;;;5053333;28;20170;-69
2022/01/21 12:34:15;;;;;;;4.27;1.40;;;6.20;91.70;;;;;;5054391;28;20206;-69
2022/01/21 12:36:51;;;;;;;9.03;1.80;;;6.30;90.30;;;;;;5053849;28;20684;-70
2022/01/21 12:39:36;;;;;;;1.87;0.97;;;6.20;89.40;;;;;;5050971;28;20290;-70
2022/01/21 12:42:20;;;;;;;2.50;1.70;;;6.20;87.20;;;;;;5055639;28;20682;-68
2022/01/21 12:44:49;;;;;;;2.57;1.40;;;6.10;88.00;;;;;;5051238;28;20222;-69
2022/01/21 12:47:37;;;;;;;2.20;1.30;;;6.00;88.40;;;;;;5058707;28;20192;-68
2022/01/21 12:50:14;;;;;;;11.50;7.80;;;6.00;88.10;;;;;;5055242;28;20758;-67
2022/01/21 12:52:55;;;;;;;3.87;2.13;;;6.00;89.10;;;;;;5055296;28;20209;-67
2022/01/21 12:58:13;;;;;;;2.60;1.23;;;6.40;87.00;;;;;;5056465;28;20230;-70
2022/01/21 13:00:40;;;;;;;5.80;1.53;;;6.20;87.50;;;;;;5050300;28;20226;-66
2022/01/21 13:03:33;;;;;;;7.33;2.40;;;7.20;86.80;;;;;;5065808;28;20194;-66
2022/01/21 13:06:19;;;;;;;3.53;1.47;;;7.10;86.50;;;;;;5054146;28;20202;-67
2022/01/21 13:09:03;;;;;;;4.33;2.00;;;7.30;85.30;;;;;;5064112;28;20648;-66
2022/01/21 13:11:29;;;;;;;8.93;2.03;;;7.20;83.80;;;;;;5046915;28;20202;-67
2022/01/21 13:14:24;;;;;;;2.63;1.43;;;7.90;84.30;;;;;;5064063;28;20293;-65
2022/01/21 13:17:08;;;;;;;6.20;2.17;;;7.90;80.40;;;;;;5062688;28;20189;-68
2022/01/21 13:19:49;;;;;;;4.80;1.50;;;7.90;81.70;;;;;;5051522;28;20224;-69
2022/01/21 13:22:23;;;;;;;3.67;2.00;;;7.60;81.50;;;;;;5053973;28;20234;-69
2022/01/21 13:25:05;;;;;;;4.17;1.47;;;7.60;80.30;;;;;;5067624;28;20195;-68
2022/01/21 13:27:33;;;;;;;6.13;1.67;;;7.30;78.60;;;;;;5076031;28;20184;-68
2022/01/21 13:30:06;;;;;;;4.77;1.20;;;7.10;78.60;;;;;;5058633;28;20219;-68
2022/01/21 13:32:32;;;;;;;2.37;1.50;;;7.00;79.60;;;;;;5049060;28;20297;-76
2022/01/21 13:35:16;;;;;;;5.53;1.67;;;6.30;80.80;;;;;;5053740;28;20328;-78
2022/01/21 13:38:00;;;;;;;3.70;1.43;;;5.30;84.30;;;;;;5052627;28;20221;-78
2022/01/21 13:40:26;;;;;;;2.63;1.90;;;4.60;86.10;;;;;;5044477;28;20219;-77
2022/01/21 13:43:04;;;;;;;2.00;1.17;;;4.10;89.50;;;;;;5063636;28;20200;-77
2022/01/21 13:45:30;;;;;;;2.87;1.33;;;3.80;90.60;;;;;;5050544;28;20202;-77
2022/01/21 13:47:55;;;;;;;3.43;1.20;;;3.50;91.00;;;;;;5064039;28;20758;-76
2022/01/21 13:50:24;;;;;;;3.73;1.20;;;3.30;92.20;;;;;;5053354;28;20194;-75
2022/01/21 13:52:53;;;;;;;3.70;1.20;;;3.20;92.90;;;;;;5058445;28;20234;-76